Beaver Bottom, Kentucky
Current Conditions -  °F | °C
As of 9:15 PM on Thursday 20 Nov 2014 (Local Time) from KPBX Reporting Station
Clear Clear  
Wind Chill: 25°   Ceiling: Unl
Heat Index: 29°   Visibility: 10mi
Dew Point: 18°   Wind: 5mph
Humidity: 61%   Direction: 280°W
Pressure: 30.19"   Gusts: NA
Location:  37.3089°N, 82.3418°W
Report Text: KPBX 210215Z AUTO 28004KT 10SM CLR M01/M08 A3019 RMK AO2 T10141080
Loading
Personal Weather Stations






























Interactive Weather Map New forecast layout! Learn more

10-Day Weather Forecast

Advertisements
Track Severe Weather on mobile